createdAt,value
2017-08-14T00:00:06.890Z,65.50
2017-08-14T00:02:33.175Z,65.70
2017-08-14T00:04:59.452Z,65.50
2017-08-14T00:07:26.460Z,66.00
2017-08-14T00:09:52.745Z,66.00
2017-08-14T00:12:19.772Z,66.00
2017-08-14T00:14:46.061Z,65.90
2017-08-14T00:17:12.335Z,66.20
2017-08-14T00:19:39.340Z,66.40
2017-08-14T00:22:05.608Z,66.40
2017-08-14T00:24:31.900Z,66.00
2017-08-14T00:26:58.179Z,66.60
2017-08-14T00:29:24.475Z,66.00
2017-08-14T00:31:50.751Z,66.10
2017-08-14T00:34:17.037Z,65.80
2017-08-14T00:36:43.337Z,65.90
2017-08-14T00:39:09.640Z,66.00
2017-08-14T00:41:35.940Z,66.20
2017-08-14T00:44:02.274Z,66.70
2017-08-14T00:46:28.588Z,66.80
2017-08-14T00:48:54.920Z,66.60
2017-08-14T00:51:21.246Z,66.60
2017-08-14T00:53:47.561Z,66.30
2017-08-14T00:56:14.593Z,65.80
2017-08-14T00:58:40.895Z,65.70
2017-08-14T01:01:07.191Z,65.30
2017-08-14T01:03:33.450Z,64.80
2017-08-14T01:06:00.496Z,64.50
2017-08-14T01:08:26.817Z,64.50
2017-08-14T01:10:53.116Z,64.40
2017-08-14T01:13:19.396Z,64.50
2017-08-14T01:15:45.682Z,64.00
2017-08-14T01:18:12.034Z,65.00
2017-08-14T01:20:38.349Z,65.00
2017-08-14T01:23:04.647Z,64.90
2017-08-14T01:25:31.690Z,64.90
2017-08-14T01:27:57.971Z,64.90
2017-08-14T01:30:24.255Z,65.10
2017-08-14T01:32:50.560Z,64.70
2017-08-14T01:35:17.589Z,64.80
2017-08-14T01:37:43.870Z,64.80
2017-08-14T01:40:10.179Z,64.90
2017-08-14T01:42:36.470Z,65.20
2017-08-14T01:45:02.786Z,65.10
2017-08-14T01:47:29.037Z,65.20
2017-08-14T01:49:55.329Z,65.20
2017-08-14T01:52:22.344Z,65.20
2017-08-14T01:54:48.619Z,65.20
2017-08-14T01:57:14.887Z,65.30
2017-08-14T01:59:41.176Z,65.40
2017-08-14T02:02:07.437Z,65.40
2017-08-14T02:04:33.746Z,65.50
2017-08-14T02:07:00.023Z,65.70
2017-08-14T02:09:26.299Z,65.40
2017-08-14T02:11:52.554Z,65.60
2017-08-14T02:14:18.863Z,65.40
2017-08-14T02:16:45.152Z,65.50
2017-08-14T02:19:11.426Z,65.40
2017-08-14T02:21:37.978Z,65.60
2017-08-14T02:24:04.250Z,65.40
2017-08-14T02:26:30.540Z,65.40
2017-08-14T02:28:56.803Z,65.70
2017-08-14T02:31:23.077Z,65.70
2017-08-14T02:33:49.382Z,65.70
2017-08-14T02:36:15.654Z,65.60
2017-08-14T02:38:41.951Z,65.60
2017-08-14T02:41:08.219Z,65.70
2017-08-14T02:43:34.516Z,65.60
2017-08-14T02:46:00.971Z,65.60
2017-08-14T02:48:27.285Z,65.50
2017-08-14T02:50:53.614Z,65.10
2017-08-14T02:53:19.888Z,65.10
2017-08-14T02:55:46.893Z,65.20
2017-08-14T02:58:13.188Z,65.20
2017-08-14T03:00:39.478Z,65.60
2017-08-14T03:03:05.811Z,65.60
2017-08-14T03:05:32.105Z,65.10
2017-08-14T03:07:58.380Z,64.90
2017-08-14T03:10:25.419Z,65.20
2017-08-14T03:12:51.723Z,65.20
2017-08-14T03:15:18.012Z,65.50
2017-08-14T03:17:44.317Z,65.30
2017-08-14T03:20:10.607Z,65.20
2017-08-14T03:22:36.865Z,65.00
2017-08-14T03:25:03.168Z,64.40
2017-08-14T03:27:30.369Z,64.70
2017-08-14T03:29:56.640Z,64.70
2017-08-14T03:32:22.897Z,65.00
2017-08-14T03:34:49.364Z,64.90
2017-08-14T03:37:15.648Z,64.60
2017-08-14T03:39:41.994Z,64.70
2017-08-14T03:42:08.273Z,64.60
2017-08-14T03:44:34.529Z,64.60
2017-08-14T03:47:00.786Z,64.50
2017-08-14T03:49:27.797Z,64.50
2017-08-14T03:51:54.064Z,64.40
2017-08-14T03:54:20.345Z,64.60
2017-08-14T03:56:47.370Z,65.40
2017-08-14T03:59:13.671Z,65.00
2017-08-14T04:01:40.680Z,64.80
2017-08-14T04:04:06.938Z,64.80
2017-08-14T04:06:33.203Z,64.90
2017-08-14T04:08:59.466Z,64.60
2017-08-14T04:11:26.496Z,64.10
2017-08-14T04:13:52.774Z,64.10
2017-08-14T04:16:19.824Z,64.20
2017-08-14T04:18:46.091Z,64.10
2017-08-14T04:21:12.387Z,64.50
2017-08-14T04:23:38.685Z,64.60
2017-08-14T04:26:05.693Z,65.00
2017-08-14T04:28:31.971Z,64.40
2017-08-14T04:30:58.246Z,64.30
2017-08-14T04:33:24.518Z,64.30
2017-08-14T04:35:50.773Z,64.10
2017-08-14T04:38:17.014Z,64.50
2017-08-14T04:40:43.265Z,64.50
2017-08-14T04:43:09.545Z,64.60
2017-08-14T04:45:35.835Z,64.60
2017-08-14T04:48:02.866Z,64.30
2017-08-14T04:50:29.148Z,64.20
2017-08-14T04:52:56.165Z,64.70
2017-08-14T04:55:22.428Z,64.70
2017-08-14T04:57:48.698Z,64.70
2017-08-14T05:00:15.736Z,64.70
2017-08-14T05:02:42.802Z,65.60
2017-08-14T05:05:09.067Z,65.10
2017-08-14T05:07:35.330Z,64.50
2017-08-14T05:10:02.343Z,64.60
2017-08-14T05:12:28.603Z,64.60
2017-08-14T05:14:54.890Z,65.40
2017-08-14T05:17:21.944Z,65.00
2017-08-14T05:19:48.968Z,64.60
2017-08-14T05:22:15.259Z,64.80
2017-08-14T05:24:42.259Z,64.60
2017-08-14T05:27:08.514Z,64.60
2017-08-14T05:29:34.794Z,64.90
2017-08-14T05:32:01.068Z,64.60
2017-08-14T05:34:27.392Z,64.70
2017-08-14T05:36:53.652Z,64.90
2017-08-14T05:39:20.665Z,64.90
2017-08-14T05:41:46.926Z,64.80
2017-08-14T05:44:13.224Z,64.60
2017-08-14T05:46:40.241Z,64.50
2017-08-14T05:49:06.500Z,64.50
2017-08-14T05:51:32.760Z,64.50
2017-08-14T05:53:59.051Z,64.70
2017-08-14T05:56:25.301Z,64.40
2017-08-14T05:58:51.587Z,64.40
2017-08-14T06:01:17.857Z,64.60
2017-08-14T06:03:44.183Z,64.10
2017-08-14T06:06:10.451Z,64.10
2017-08-14T06:08:36.714Z,64.10
2017-08-14T06:11:03.728Z,63.60
2017-08-14T06:13:30.016Z,63.60
2017-08-14T06:15:56.311Z,63.40
2017-08-14T06:18:22.577Z,63.10
2017-08-14T06:20:48.830Z,63.10
2017-08-14T06:23:15.221Z,63.00
2017-08-14T06:25:42.247Z,63.60
2017-08-14T06:28:08.503Z,63.50
2017-08-14T06:30:34.790Z,62.80
2017-08-14T06:33:01.774Z,63.10
2017-08-14T06:35:28.088Z,62.40
2017-08-14T06:37:55.109Z,62.00
2017-08-14T06:40:21.400Z,62.00
2017-08-14T06:42:48.410Z,62.50
2017-08-14T06:45:14.683Z,62.40
2017-08-14T06:47:40.952Z,62.50
2017-08-14T06:50:07.975Z,62.80
2017-08-14T06:52:34.230Z,62.20
2017-08-14T06:55:00.513Z,62.30
2017-08-14T06:57:27.550Z,61.90
2017-08-14T06:59:53.819Z,61.90
2017-08-14T07:02:20.109Z,61.80
2017-08-14T07:04:46.383Z,61.70
2017-08-14T07:07:12.716Z,60.80
2017-08-14T07:09:38.996Z,61.40
2017-08-14T07:12:05.296Z,61.10
2017-08-14T07:14:31.560Z,60.40
2017-08-14T07:16:57.820Z,60.00
2017-08-14T07:19:24.151Z,60.00
2017-08-14T07:21:50.445Z,60.00
2017-08-14T07:24:16.710Z,60.10
2017-08-14T07:26:43.726Z,59.90
2017-08-14T07:29:09.987Z,59.90
2017-08-14T07:31:36.256Z,60.00
2017-08-14T07:34:02.544Z,59.90
2017-08-14T07:36:28.832Z,59.60
2017-08-14T07:38:55.103Z,60.20
2017-08-14T07:41:22.158Z,59.00
2017-08-14T07:43:48.456Z,59.00
2017-08-14T07:46:14.724Z,58.60
2017-08-14T07:48:41.044Z,58.80
2017-08-14T07:51:07.447Z,58.20
2017-08-14T07:53:33.746Z,57.50
2017-08-14T07:56:00.037Z,58.00
2017-08-14T07:58:26.402Z,57.20
2017-08-14T08:00:52.672Z,57.20
2017-08-14T08:03:18.938Z,57.60
2017-08-14T08:05:45.235Z,56.40
2017-08-14T08:08:12.276Z,55.70
2017-08-14T08:10:39.001Z,55.60
2017-08-14T08:13:05.346Z,55.10
2017-08-14T08:15:31.605Z,55.50
2017-08-14T08:17:57.910Z,55.20
2017-08-14T08:20:24.984Z,55.30
2017-08-14T08:22:51.287Z,55.20
2017-08-14T08:25:17.578Z,54.90
2017-08-14T08:27:44.595Z,55.10
2017-08-14T08:30:10.840Z,55.10
2017-08-14T08:32:37.111Z,53.90
2017-08-14T08:35:04.131Z,54.10
2017-08-14T08:37:30.401Z,53.40
2017-08-14T08:39:56.655Z,53.70
2017-08-14T08:42:22.937Z,53.50
2017-08-14T08:44:49.950Z,53.50
2017-08-14T08:47:16.223Z,53.40
2017-08-14T08:49:42.508Z,53.40
2017-08-14T08:52:08.777Z,53.30
2017-08-14T08:54:35.088Z,52.60
2017-08-14T08:57:02.123Z,52.10
2017-08-14T08:59:28.391Z,52.10
2017-08-14T09:01:55.425Z,52.50
2017-08-14T09:04:21.673Z,52.50
2017-08-14T09:06:47.937Z,51.70
2017-08-14T09:09:14.233Z,52.70
2017-08-14T09:11:40.525Z,51.30
2017-08-14T09:14:06.825Z,51.40
2017-08-14T09:16:33.113Z,52.20
2017-08-14T09:18:59.381Z,52.60
2017-08-14T09:21:25.680Z,51.70
2017-08-14T09:23:51.934Z,51.20
2017-08-14T09:26:18.190Z,52.20
2017-08-14T09:28:44.459Z,51.80
2017-08-14T09:31:10.731Z,51.60
2017-08-14T09:33:37.019Z,50.90
2017-08-14T09:36:03.287Z,51.10
2017-08-14T09:38:29.586Z,50.80
2017-08-14T09:40:56.641Z,51.40
2017-08-14T09:43:23.671Z,50.10
2017-08-14T09:45:49.977Z,50.00
2017-08-14T09:48:16.245Z,50.30
2017-08-14T09:50:42.491Z,50.90
2017-08-14T09:53:08.765Z,51.00
2017-08-14T09:55:35.042Z,50.50
2017-08-14T09:58:02.071Z,52.10
2017-08-14T10:00:28.338Z,52.30
2017-08-14T10:02:54.617Z,51.60
2017-08-14T10:05:27.854Z,52.20
2017-08-14T10:07:54.150Z,51.10
2017-08-14T10:10:20.425Z,49.30
2017-08-14T10:12:46.740Z,46.00
2017-08-14T10:15:13.766Z,40.30
2017-08-14T10:17:40.063Z,40.30
2017-08-14T10:20:06.444Z,38.00
2017-08-14T10:22:32.765Z,36.70
2017-08-14T10:24:59.793Z,38.00
2017-08-14T10:27:26.075Z,38.00
2017-08-14T10:29:53.164Z,37.70
2017-08-14T10:32:19.438Z,37.60
2017-08-14T10:34:45.739Z,37.40
2017-08-14T10:37:12.740Z,36.00
2017-08-14T10:39:39.097Z,35.90
2017-08-14T10:42:05.355Z,34.80
2017-08-14T10:44:31.614Z,33.50
2017-08-14T10:46:57.890Z,33.60
2017-08-14T10:49:24.875Z,34.10
2017-08-14T10:51:51.195Z,33.80
2017-08-14T10:54:17.458Z,33.40
2017-08-14T10:56:43.740Z,34.50
2017-08-14T10:59:10.026Z,36.10
2017-08-14T11:01:36.289Z,37.90
2017-08-14T11:04:03.309Z,38.40
2017-08-14T11:06:29.618Z,38.40
2017-08-14T11:08:56.677Z,37.50
2017-08-14T11:11:23.679Z,35.00
2017-08-14T11:13:49.966Z,34.80
2017-08-14T11:16:16.243Z,33.50
2017-08-14T11:18:43.337Z,32.30
2017-08-14T11:21:09.633Z,32.20
2017-08-14T11:23:36.648Z,33.70
2017-08-14T11:26:02.913Z,33.00
2017-08-14T11:28:29.216Z,34.90
2017-08-14T11:30:56.214Z,38.10
2017-08-14T11:33:22.484Z,38.10
2017-08-14T11:35:48.750Z,38.70
2017-08-14T11:38:15.021Z,41.00
2017-08-14T11:40:41.272Z,44.40
2017-08-14T11:43:07.539Z,42.70
2017-08-14T11:45:33.802Z,43.20
2017-08-14T11:48:00.065Z,43.20
2017-08-14T11:50:26.322Z,45.50
2017-08-14T11:52:52.593Z,44.10
2017-08-14T11:55:19.581Z,48.50
2017-08-14T11:57:45.868Z,48.50
2017-08-14T12:00:12.181Z,46.60
2017-08-14T12:02:38.467Z,44.70
2017-08-14T12:05:04.801Z,46.60
2017-08-14T12:07:31.067Z,44.90
2017-08-14T12:09:57.335Z,47.70
2017-08-14T12:12:24.438Z,48.50
2017-08-14T12:14:50.707Z,48.50
2017-08-14T12:17:16.992Z,47.60
2017-08-14T12:19:43.368Z,45.80
2017-08-14T12:22:09.628Z,45.20
2017-08-14T12:24:35.903Z,47.00
2017-08-14T12:27:02.166Z,49.20
2017-08-14T12:29:28.433Z,47.90
2017-08-14T12:31:54.688Z,45.60
2017-08-14T12:34:21.717Z,48.10
2017-08-14T12:36:48.005Z,47.50
2017-08-14T12:39:14.991Z,48.50
2017-08-14T12:41:41.241Z,48.50
2017-08-14T12:44:07.511Z,46.00
2017-08-14T12:46:33.765Z,46.10
2017-08-14T12:49:00.005Z,46.90
2017-08-14T12:51:26.284Z,47.30
2017-08-14T12:53:53.313Z,50.20
2017-08-14T12:56:19.571Z,49.90
2017-08-14T12:58:45.840Z,46.00
2017-08-14T13:01:12.098Z,47.80
2017-08-14T13:03:39.129Z,48.50
2017-08-14T13:06:05.373Z,48.40
2017-08-14T13:08:31.627Z,47.80
2017-08-14T13:10:57.901Z,49.90
2017-08-14T13:13:24.922Z,49.30
2017-08-14T13:15:51.189Z,50.00
2017-08-14T13:18:17.507Z,46.10
2017-08-14T13:20:43.818Z,45.20
2017-08-14T13:23:10.840Z,46.00
2017-08-14T13:25:37.089Z,45.90
2017-08-14T13:28:03.419Z,47.60
2017-08-14T13:30:29.701Z,45.90
2017-08-14T13:32:55.989Z,45.20
2017-08-14T13:35:22.977Z,50.30
2017-08-14T13:37:49.215Z,50.20
2017-08-14T13:40:15.515Z,49.10
